sensor_id;sensor_type;location;lat;lon;timestamp;P1;durP1;ratioP1;P2;durP2;ratioP2
13685;SDS011;6915;48.296;8.874;2024-02-26T00:02:15;0.60;;;0.60;;
13685;SDS011;6915;48.296;8.874;2024-02-26T00:04:42;0.40;;;0.40;;
13685;SDS011;6915;48.296;8.874;2024-02-26T00:07:09;1.60;;;1.00;;
13685;SDS011;6915;48.296;8.874;2024-02-26T00:09:37;0.73;;;0.70;;
13685;SDS011;6915;48.296;8.874;2024-02-26T00:12:04;0.80;;;0.80;;
13685;SDS011;6915;48.296;8.874;2024-02-26T00:14:31;0.80;;;0.70;;
13685;SDS011;6915;48.296;8.874;2024-02-26T00:16:58;0.80;;;0.80;;
13685;SDS011;6915;48.296;8.874;2024-02-26T00:19:25;1.80;;;0.57;;
13685;SDS011;6915;48.296;8.874;2024-02-26T00:21:52;0.40;;;0.40;;
13685;SDS011;6915;48.296;8.874;2024-02-26T00:24:20;0.60;;;0.60;;
13685;SDS011;6915;48.296;8.874;2024-02-26T00:26:48;0.73;;;0.50;;
13685;SDS011;6915;48.296;8.874;2024-02-26T00:29:19;1.60;;;0.70;;
13685;SDS011;6915;48.296;8.874;2024-02-26T00:31:46;0.40;;;0.40;;
13685;SDS011;6915;48.296;8.874;2024-02-26T00:34:13;2.13;;;0.50;;
13685;SDS011;6915;48.296;8.874;2024-02-26T00:36:40;0.60;;;0.60;;
13685;SDS011;6915;48.296;8.874;2024-02-26T00:39:07;0.80;;;0.57;;
13685;SDS011;6915;48.296;8.874;2024-02-26T00:41:37;0.50;;;0.50;;
13685;SDS011;6915;48.296;8.874;2024-02-26T00:44:06;0.70;;;0.70;;
13685;SDS011;6915;48.296;8.874;2024-02-26T00:46:33;0.90;;;0.77;;
13685;SDS011;6915;48.296;8.874;2024-02-26T00:49:00;0.90;;;0.90;;
13685;SDS011;6915;48.296;8.874;2024-02-26T00:51:27;0.70;;;0.70;;
13685;SDS011;6915;48.296;8.874;2024-02-26T00:53:56;0.93;;;0.70;;
13685;SDS011;6915;48.296;8.874;2024-02-26T00:56:23;0.70;;;0.70;;
13685;SDS011;6915;48.296;8.874;2024-02-26T00:58:50;1.10;;;0.90;;
13685;SDS011;6915;48.296;8.874;2024-02-26T01:01:18;1.13;;;1.03;;
13685;SDS011;6915;48.296;8.874;2024-02-26T01:03:46;0.90;;;0.70;;
13685;SDS011;6915;48.296;8.874;2024-02-26T01:06:12;0.60;;;0.60;;
13685;SDS011;6915;48.296;8.874;2024-02-26T01:08:39;0.80;;;0.70;;
13685;SDS011;6915;48.296;8.874;2024-02-26T01:11:06;0.60;;;0.60;;
13685;SDS011;6915;48.296;8.874;2024-02-26T01:13:33;1.13;;;0.77;;
13685;SDS011;6915;48.296;8.874;2024-02-26T01:16:00;0.60;;;0.57;;
13685;SDS011;6915;48.296;8.874;2024-02-26T01:18:29;0.93;;;0.67;;
13685;SDS011;6915;48.296;8.874;2024-02-26T01:20:55;0.83;;;0.73;;
13685;SDS011;6915;48.296;8.874;2024-02-26T01:23:22;0.80;;;0.70;;
13685;SDS011;6915;48.296;8.874;2024-02-26T01:25:49;0.43;;;0.43;;
13685;SDS011;6915;48.296;8.874;2024-02-26T01:28:16;1.77;;;0.63;;
13685;SDS011;6915;48.296;8.874;2024-02-26T01:30:43;0.83;;;0.60;;
13685;SDS011;6915;48.296;8.874;2024-02-26T01:33:10;0.77;;;0.77;;
13685;SDS011;6915;48.296;8.874;2024-02-26T01:35:38;0.60;;;0.60;;
13685;SDS011;6915;48.296;8.874;2024-02-26T01:38:05;0.73;;;0.73;;
13685;SDS011;6915;48.296;8.874;2024-02-26T01:40:32;1.23;;;0.80;;
13685;SDS011;6915;48.296;8.874;2024-02-26T01:42:59;0.90;;;0.60;;
13685;SDS011;6915;48.296;8.874;2024-02-26T01:45:26;1.30;;;0.80;;
13685;SDS011;6915;48.296;8.874;2024-02-26T01:47:53;0.73;;;0.73;;
13685;SDS011;6915;48.296;8.874;2024-02-26T01:50:21;0.53;;;0.53;;
13685;SDS011;6915;48.296;8.874;2024-02-26T01:52:50;0.80;;;0.73;;
13685;SDS011;6915;48.296;8.874;2024-02-26T01:55:18;0.60;;;0.60;;
13685;SDS011;6915;48.296;8.874;2024-02-26T01:57:47;0.70;;;0.70;;
13685;SDS011;6915;48.296;8.874;2024-02-26T02:00:17;0.70;;;0.70;;
13685;SDS011;6915;48.296;8.874;2024-02-26T02:02:45;0.67;;;0.67;;
13685;SDS011;6915;48.296;8.874;2024-02-26T02:05:13;0.90;;;0.90;;
13685;SDS011;6915;48.296;8.874;2024-02-26T02:07:42;0.97;;;0.80;;
13685;SDS011;6915;48.296;8.874;2024-02-26T02:10:11;1.23;;;0.87;;
13685;SDS011;6915;48.296;8.874;2024-02-26T02:12:38;1.10;;;1.00;;
13685;SDS011;6915;48.296;8.874;2024-02-26T02:15:06;1.20;;;1.10;;
13685;SDS011;6915;48.296;8.874;2024-02-26T02:17:33;0.80;;;0.80;;
13685;SDS011;6915;48.296;8.874;2024-02-26T02:20:00;0.80;;;0.80;;
13685;SDS011;6915;48.296;8.874;2024-02-26T02:22:29;1.17;;;0.87;;
13685;SDS011;6915;48.296;8.874;2024-02-26T02:24:58;2.60;;;1.20;;
13685;SDS011;6915;48.296;8.874;2024-02-26T02:27:26;1.10;;;1.00;;
13685;SDS011;6915;48.296;8.874;2024-02-26T02:29:53;1.47;;;1.10;;
13685;SDS011;6915;48.296;8.874;2024-02-26T02:32:20;1.23;;;0.90;;
13685;SDS011;6915;48.296;8.874;2024-02-26T02:34:49;1.57;;;1.00;;
13685;SDS011;6915;48.296;8.874;2024-02-26T02:37:16;1.13;;;0.90;;
13685;SDS011;6915;48.296;8.874;2024-02-26T02:39:44;0.70;;;0.70;;
13685;SDS011;6915;48.296;8.874;2024-02-26T02:42:11;1.00;;;0.87;;
13685;SDS011;6915;48.296;8.874;2024-02-26T02:44:38;0.83;;;0.80;;
13685;SDS011;6915;48.296;8.874;2024-02-26T02:47:05;0.80;;;0.80;;
13685;SDS011;6915;48.296;8.874;2024-02-26T02:49:32;0.73;;;0.73;;
13685;SDS011;6915;48.296;8.874;2024-02-26T02:51:59;2.73;;;0.90;;
13685;SDS011;6915;48.296;8.874;2024-02-26T02:54:26;1.80;;;0.80;;
13685;SDS011;6915;48.296;8.874;2024-02-26T02:56:54;0.80;;;0.80;;
13685;SDS011;6915;48.296;8.874;2024-02-26T02:59:21;1.40;;;0.97;;
13685;SDS011;6915;48.296;8.874;2024-02-26T03:01:48;1.20;;;0.83;;
13685;SDS011;6915;48.296;8.874;2024-02-26T03:04:15;1.27;;;1.17;;
13685;SDS011;6915;48.296;8.874;2024-02-26T03:06:42;1.00;;;0.90;;
13685;SDS011;6915;48.296;8.874;2024-02-26T03:09:09;0.70;;;0.70;;
13685;SDS011;6915;48.296;8.874;2024-02-26T03:11:36;0.80;;;0.80;;
13685;SDS011;6915;48.296;8.874;2024-02-26T03:14:05;1.40;;;0.90;;
13685;SDS011;6915;48.296;8.874;2024-02-26T03:16:32;0.77;;;0.73;;
13685;SDS011;6915;48.296;8.874;2024-02-26T03:18:59;1.67;;;0.80;;
13685;SDS011;6915;48.296;8.874;2024-02-26T03:21:26;0.70;;;0.70;;
13685;SDS011;6915;48.296;8.874;2024-02-26T03:23:53;0.93;;;0.70;;
13685;SDS011;6915;48.296;8.874;2024-02-26T03:26:20;1.90;;;0.70;;
13685;SDS011;6915;48.296;8.874;2024-02-26T03:28:47;1.33;;;0.80;;
13685;SDS011;6915;48.296;8.874;2024-02-26T03:31:16;1.00;;;0.90;;
13685;SDS011;6915;48.296;8.874;2024-02-26T03:33:42;1.40;;;1.30;;
13685;SDS011;6915;48.296;8.874;2024-02-26T03:36:09;1.33;;;1.07;;
13685;SDS011;6915;48.296;8.874;2024-02-26T03:38:37;2.03;;;1.30;;
13685;SDS011;6915;48.296;8.874;2024-02-26T03:41:04;1.37;;;1.20;;
13685;SDS011;6915;48.296;8.874;2024-02-26T03:43:30;1.47;;;1.20;;
13685;SDS011;6915;48.296;8.874;2024-02-26T03:45:58;1.30;;;1.20;;
13685;SDS011;6915;48.296;8.874;2024-02-26T03:48:26;2.73;;;1.30;;
13685;SDS011;6915;48.296;8.874;2024-02-26T03:53:28;1.50;;;1.10;;
13685;SDS011;6915;48.296;8.874;2024-02-26T03:55:55;0.83;;;0.80;;
13685;SDS011;6915;48.296;8.874;2024-02-26T03:58:22;2.03;;;1.20;;
13685;SDS011;6915;48.296;8.874;2024-02-26T04:00:50;8.67;;;6.07;;
13685;SDS011;6915;48.296;8.874;2024-02-26T04:03:17;2.17;;;1.83;;
13685;SDS011;6915;48.296;8.874;2024-02-26T04:36:50;1.40;;;1.00;;
13685;SDS011;6915;48.296;8.874;2024-02-26T04:39:21;0.97;;;0.90;;
13685;SDS011;6915;48.296;8.874;2024-02-26T04:41:48;0.93;;;0.80;;
13685;SDS011;6915;48.296;8.874;2024-02-26T04:44:17;0.90;;;0.90;;
13685;SDS011;6915;48.296;8.874;2024-02-26T04:46:44;0.90;;;0.90;;
13685;SDS011;6915;48.296;8.874;2024-02-26T04:49:11;0.87;;;0.87;;
13685;SDS011;6915;48.296;8.874;2024-02-26T07:15:41;4.63;;;2.23;;
13685;SDS011;6915;48.296;8.874;2024-02-26T07:18:08;3.73;;;3.27;;
13685;SDS011;6915;48.296;8.874;2024-02-26T07:20:35;5.43;;;3.00;;
13685;SDS011;6915;48.296;8.874;2024-02-26T07:23:02;4.87;;;2.97;;
13685;SDS011;6915;48.296;8.874;2024-02-26T07:25:29;2.20;;;1.80;;
13685;SDS011;6915;48.296;8.874;2024-02-26T07:27:56;1.80;;;1.57;;
13685;SDS011;6915;48.296;8.874;2024-02-26T07:30:23;2.67;;;1.70;;
13685;SDS011;6915;48.296;8.874;2024-02-26T07:32:52;2.10;;;1.90;;
13685;SDS011;6915;48.296;8.874;2024-02-26T07:35:19;4.10;;;2.83;;
13685;SDS011;6915;48.296;8.874;2024-02-26T07:37:47;5.43;;;3.27;;
13685;SDS011;6915;48.296;8.874;2024-02-26T07:40:15;2.60;;;2.40;;
13685;SDS011;6915;48.296;8.874;2024-02-26T07:42:42;3.53;;;2.17;;
13685;SDS011;6915;48.296;8.874;2024-02-26T07:45:09;2.97;;;2.67;;
13685;SDS011;6915;48.296;8.874;2024-02-26T07:47:37;3.33;;;2.90;;
13685;SDS011;6915;48.296;8.874;2024-02-26T07:50:07;6.40;;;2.87;;
13685;SDS011;6915;48.296;8.874;2024-02-26T07:52:36;3.03;;;2.80;;
13685;SDS011;6915;48.296;8.874;2024-02-26T07:55:03;3.47;;;2.20;;
13685;SDS011;6915;48.296;8.874;2024-02-26T07:57:31;2.00;;;1.80;;
13685;SDS011;6915;48.296;8.874;2024-02-26T07:59:59;2.90;;;2.00;;
13685;SDS011;6915;48.296;8.874;2024-02-26T08:02:26;3.27;;;2.60;;
13685;SDS011;6915;48.296;8.874;2024-02-26T08:04:54;3.53;;;2.70;;
13685;SDS011;6915;48.296;8.874;2024-02-26T08:07:22;4.03;;;2.60;;
13685;SDS011;6915;48.296;8.874;2024-02-26T08:09:50;2.37;;;2.17;;
13685;SDS011;6915;48.296;8.874;2024-02-26T08:12:17;2.77;;;2.20;;
13685;SDS011;6915;48.296;8.874;2024-02-26T08:14:44;4.67;;;2.77;;
13685;SDS011;6915;48.296;8.874;2024-02-26T08:17:11;4.07;;;2.40;;
13685;SDS011;6915;48.296;8.874;2024-02-26T08:19:38;2.40;;;2.20;;
13685;SDS011;6915;48.296;8.874;2024-02-26T08:22:05;2.73;;;2.07;;
13685;SDS011;6915;48.296;8.874;2024-02-26T08:24:33;3.30;;;2.60;;
13685;SDS011;6915;48.296;8.874;2024-02-26T08:27:00;3.13;;;2.50;;
13685;SDS011;6915;48.296;8.874;2024-02-26T08:29:27;2.43;;;2.23;;
13685;SDS011;6915;48.296;8.874;2024-02-26T08:31:54;2.80;;;2.27;;
13685;SDS011;6915;48.296;8.874;2024-02-26T08:34:21;3.30;;;2.43;;
13685;SDS011;6915;48.296;8.874;2024-02-26T08:36:49;8.37;;;5.40;;
13685;SDS011;6915;48.296;8.874;2024-02-26T08:39:16;12.73;;;8.03;;
13685;SDS011;6915;48.296;8.874;2024-02-26T08:41:45;7.17;;;4.87;;
13685;SDS011;6915;48.296;8.874;2024-02-26T08:44:12;3.37;;;2.90;;
13685;SDS011;6915;48.296;8.874;2024-02-26T08:46:39;6.27;;;4.07;;
13685;SDS011;6915;48.296;8.874;2024-02-26T08:49:06;10.27;;;5.40;;
13685;SDS011;6915;48.296;8.874;2024-02-26T08:51:33;5.57;;;4.30;;
13685;SDS011;6915;48.296;8.874;2024-02-26T08:54:00;6.50;;;3.70;;
13685;SDS011;6915;48.296;8.874;2024-02-26T08:56:27;2.60;;;2.30;;
13685;SDS011;6915;48.296;8.874;2024-02-26T08:58:58;3.40;;;2.70;;
13685;SDS011;6915;48.296;8.874;2024-02-26T09:01:30;5.63;;;1.83;;
13685;SDS011;6915;48.296;8.874;2024-02-26T09:03:59;1.80;;;1.30;;
13685;SDS011;6915;48.296;8.874;2024-02-26T09:06:28;5.40;;;1.63;;
13685;SDS011;6915;48.296;8.874;2024-02-26T09:08:56;1.57;;;1.40;;
13685;SDS011;6915;48.296;8.874;2024-02-26T09:11:23;2.63;;;1.70;;
13685;SDS011;6915;48.296;8.874;2024-02-26T09:13:50;2.03;;;1.70;;
13685;SDS011;6915;48.296;8.874;2024-02-26T09:16:18;1.80;;;1.70;;
13685;SDS011;6915;48.296;8.874;2024-02-26T09:18:45;2.63;;;1.87;;
13685;SDS011;6915;48.296;8.874;2024-02-26T09:21:13;3.37;;;2.33;;
13685;SDS011;6915;48.296;8.874;2024-02-26T09:23:43;5.30;;;2.47;;
13685;SDS011;6915;48.296;8.874;2024-02-26T09:26:10;5.70;;;2.90;;
13685;SDS011;6915;48.296;8.874;2024-02-26T09:28:37;2.50;;;2.30;;
13685;SDS011;6915;48.296;8.874;2024-02-26T09:31:04;4.17;;;2.70;;
13685;SDS011;6915;48.296;8.874;2024-02-26T09:33:33;3.73;;;2.80;;
13685;SDS011;6915;48.296;8.874;2024-02-26T09:36:01;4.47;;;2.97;;
13685;SDS011;6915;48.296;8.874;2024-02-26T09:38:29;4.73;;;2.70;;
13685;SDS011;6915;48.296;8.874;2024-02-26T09:40:56;3.30;;;2.60;;
13685;SDS011;6915;48.296;8.874;2024-02-26T09:43:24;4.00;;;2.30;;
13685;SDS011;6915;48.296;8.874;2024-02-26T09:45:59;4.73;;;3.73;;
13685;SDS011;6915;48.296;8.874;2024-02-26T09:48:26;3.37;;;2.20;;
13685;SDS011;6915;48.296;8.874;2024-02-26T09:50:58;4.20;;;2.23;;
13685;SDS011;6915;48.296;8.874;2024-02-26T09:57:28;1.67;;;1.57;;
13685;SDS011;6915;48.296;8.874;2024-02-26T10:01:00;1.60;;;1.50;;
13685;SDS011;6915;48.296;8.874;2024-02-26T10:03:41;2.37;;;1.60;;
13685;SDS011;6915;48.296;8.874;2024-02-26T10:09:56;2.33;;;1.93;;
13685;SDS011;6915;48.296;8.874;2024-02-26T10:13:05;1.87;;;1.67;;
13685;SDS011;6915;48.296;8.874;2024-02-26T10:16:51;2.20;;;2.00;;
13685;SDS011;6915;48.296;8.874;2024-02-26T10:20:08;3.57;;;2.10;;
13685;SDS011;6915;48.296;8.874;2024-02-26T10:53:51;2.90;;;1.80;;
13685;SDS011;6915;48.296;8.874;2024-02-26T11:40:48;2.30;;;2.03;;
13685;SDS011;6915;48.296;8.874;2024-02-26T11:43:30;1.60;;;1.50;;
13685;SDS011;6915;48.296;8.874;2024-02-26T11:46:24;2.77;;;1.57;;
13685;SDS011;6915;48.296;8.874;2024-02-26T11:48:53;1.70;;;1.60;;
13685;SDS011;6915;48.296;8.874;2024-02-26T11:51:24;1.67;;;1.57;;
13685;SDS011;6915;48.296;8.874;2024-02-26T12:47:58;1.67;;;1.30;;
13685;SDS011;6915;48.296;8.874;2024-02-26T12:50:25;1.63;;;1.50;;
13685;SDS011;6915;48.296;8.874;2024-02-26T12:52:52;1.53;;;1.43;;
13685;SDS011;6915;48.296;8.874;2024-02-26T12:55:20;2.20;;;1.47;;
13685;SDS011;6915;48.296;8.874;2024-02-26T12:57:47;1.50;;;1.40;;
13685;SDS011;6915;48.296;8.874;2024-02-26T13:00:17;1.90;;;1.67;;
13685;SDS011;6915;48.296;8.874;2024-02-26T13:02:53;2.13;;;1.40;;
13685;SDS011;6915;48.296;8.874;2024-02-26T13:05:23;2.30;;;1.50;;
13685;SDS011;6915;48.296;8.874;2024-02-26T13:07:50;1.47;;;1.37;;
13685;SDS011;6915;48.296;8.874;2024-02-26T13:10:18;3.97;;;2.47;;
13685;SDS011;6915;48.296;8.874;2024-02-26T13:12:47;2.70;;;2.43;;
13685;SDS011;6915;48.296;8.874;2024-02-26T13:15:15;1.30;;;1.20;;
13685;SDS011;6915;48.296;8.874;2024-02-26T13:17:45;2.23;;;1.30;;
13685;SDS011;6915;48.296;8.874;2024-02-26T13:20:13;2.13;;;1.50;;
13685;SDS011;6915;48.296;8.874;2024-02-26T13:22:59;2.13;;;1.43;;
13685;SDS011;6915;48.296;8.874;2024-02-26T13:25:27;2.00;;;1.60;;
13685;SDS011;6915;48.296;8.874;2024-02-26T13:28:04;1.40;;;1.30;;
13685;SDS011;6915;48.296;8.874;2024-02-26T13:30:32;1.60;;;1.50;;
13685;SDS011;6915;48.296;8.874;2024-02-26T13:33:06;3.37;;;1.67;;
13685;SDS011;6915;48.296;8.874;2024-02-26T13:35:35;1.50;;;1.40;;
13685;SDS011;6915;48.296;8.874;2024-02-26T13:38:04;3.30;;;1.70;;
13685;SDS011;6915;48.296;8.874;2024-02-26T13:40:31;1.97;;;1.73;;
13685;SDS011;6915;48.296;8.874;2024-02-26T13:42:59;2.13;;;1.50;;
13685;SDS011;6915;48.296;8.874;2024-02-26T13:45:26;1.67;;;1.57;;
13685;SDS011;6915;48.296;8.874;2024-02-26T13:47:53;2.27;;;1.70;;
13685;SDS011;6915;48.296;8.874;2024-02-26T13:50:20;3.53;;;1.80;;
13685;SDS011;6915;48.296;8.874;2024-02-26T13:52:52;1.63;;;1.47;;
13685;SDS011;6915;48.296;8.874;2024-02-26T13:55:21;2.20;;;1.50;;
13685;SDS011;6915;48.296;8.874;2024-02-26T13:57:51;2.20;;;1.57;;
13685;SDS011;6915;48.296;8.874;2024-02-26T14:00:19;1.93;;;1.37;;
13685;SDS011;6915;48.296;8.874;2024-02-26T14:02:46;2.30;;;1.30;;
13685;SDS011;6915;48.296;8.874;2024-02-26T14:05:13;2.43;;;1.20;;
13685;SDS011;6915;48.296;8.874;2024-02-26T14:07:40;1.83;;;0.80;;
13685;SDS011;6915;48.296;8.874;2024-02-26T14:10:11;1.53;;;0.90;;
13685;SDS011;6915;48.296;8.874;2024-02-26T14:12:38;1.07;;;0.97;;
13685;SDS011;6915;48.296;8.874;2024-02-26T14:15:06;1.57;;;0.97;;
13685;SDS011;6915;48.296;8.874;2024-02-26T14:17:34;2.50;;;1.03;;
13685;SDS011;6915;48.296;8.874;2024-02-26T14:20:01;1.90;;;0.90;;
13685;SDS011;6915;48.296;8.874;2024-02-26T14:22:28;1.37;;;0.83;;
13685;SDS011;6915;48.296;8.874;2024-02-26T14:24:56;1.10;;;0.90;;
13685;SDS011;6915;48.296;8.874;2024-02-26T14:27:26;2.17;;;1.20;;
13685;SDS011;6915;48.296;8.874;2024-02-26T14:29:53;1.47;;;1.17;;
13685;SDS011;6915;48.296;8.874;2024-02-26T14:32:20;1.00;;;0.90;;
13685;SDS011;6915;48.296;8.874;2024-02-26T14:34:47;1.13;;;0.77;;
13685;SDS011;6915;48.296;8.874;2024-02-26T14:37:14;1.43;;;0.80;;
13685;SDS011;6915;48.296;8.874;2024-02-26T14:39:41;0.60;;;0.60;;
13685;SDS011;6915;48.296;8.874;2024-02-26T14:42:08;0.87;;;0.67;;
13685;SDS011;6915;48.296;8.874;2024-02-26T14:44:37;0.70;;;0.60;;
13685;SDS011;6915;48.296;8.874;2024-02-26T14:47:04;0.70;;;0.70;;
13685;SDS011;6915;48.296;8.874;2024-02-26T14:49:31;1.67;;;0.70;;
13685;SDS011;6915;48.296;8.874;2024-02-26T14:51:59;0.70;;;0.70;;
13685;SDS011;6915;48.296;8.874;2024-02-26T14:54:28;2.20;;;0.90;;
13685;SDS011;6915;48.296;8.874;2024-02-26T14:56:57;1.23;;;1.00;;
13685;SDS011;6915;48.296;8.874;2024-02-26T14:59:24;2.50;;;1.20;;
13685;SDS011;6915;48.296;8.874;2024-02-26T15:01:53;2.63;;;1.10;;
13685;SDS011;6915;48.296;8.874;2024-02-26T15:04:20;0.80;;;0.73;;
13685;SDS011;6915;48.296;8.874;2024-02-26T15:06:47;1.37;;;1.00;;
13685;SDS011;6915;48.296;8.874;2024-02-26T15:09:14;1.03;;;0.80;;
13685;SDS011;6915;48.296;8.874;2024-02-26T15:11:41;1.00;;;0.90;;
13685;SDS011;6915;48.296;8.874;2024-02-26T15:14:09;1.20;;;1.03;;
13685;SDS011;6915;48.296;8.874;2024-02-26T15:16:36;1.37;;;1.27;;
13685;SDS011;6915;48.296;8.874;2024-02-26T15:19:05;3.73;;;1.33;;
13685;SDS011;6915;48.296;8.874;2024-02-26T15:21:32;1.57;;;1.03;;
13685;SDS011;6915;48.296;8.874;2024-02-26T15:23:59;1.47;;;1.10;;
13685;SDS011;6915;48.296;8.874;2024-02-26T15:26:28;1.50;;;1.00;;
13685;SDS011;6915;48.296;8.874;2024-02-26T15:28:55;1.40;;;1.30;;
13685;SDS011;6915;48.296;8.874;2024-02-26T15:31:22;1.10;;;1.00;;
13685;SDS011;6915;48.296;8.874;2024-02-26T15:33:49;1.30;;;1.20;;
13685;SDS011;6915;48.296;8.874;2024-02-26T15:36:17;1.30;;;1.20;;
13685;SDS011;6915;48.296;8.874;2024-02-26T15:38:44;1.30;;;0.97;;
13685;SDS011;6915;48.296;8.874;2024-02-26T15:41:11;1.63;;;1.23;;
13685;SDS011;6915;48.296;8.874;2024-02-26T15:43:39;1.97;;;1.50;;
13685;SDS011;6915;48.296;8.874;2024-02-26T15:46:06;2.60;;;1.20;;
13685;SDS011;6915;48.296;8.874;2024-02-26T15:48:34;1.93;;;1.17;;
13685;SDS011;6915;48.296;8.874;2024-02-26T15:51:03;3.00;;;1.43;;
13685;SDS011;6915;48.296;8.874;2024-02-26T15:53:32;2.87;;;1.30;;
13685;SDS011;6915;48.296;8.874;2024-02-26T15:55:59;1.43;;;1.07;;
13685;SDS011;6915;48.296;8.874;2024-02-26T15:58:26;1.47;;;1.00;;
13685;SDS011;6915;48.296;8.874;2024-02-26T16:00:53;2.00;;;1.13;;
13685;SDS011;6915;48.296;8.874;2024-02-26T16:03:20;1.40;;;1.10;;
13685;SDS011;6915;48.296;8.874;2024-02-26T16:05:47;1.30;;;1.20;;
13685;SDS011;6915;48.296;8.874;2024-02-26T16:08:16;2.87;;;1.40;;
13685;SDS011;6915;48.296;8.874;2024-02-26T16:10:47;4.80;;;1.70;;
13685;SDS011;6915;48.296;8.874;2024-02-26T16:13:14;2.07;;;1.13;;
13685;SDS011;6915;48.296;8.874;2024-02-26T16:15:42;2.70;;;1.20;;
13685;SDS011;6915;48.296;8.874;2024-02-26T16:18:12;2.07;;;1.67;;
13685;SDS011;6915;48.296;8.874;2024-02-26T16:20:40;4.33;;;1.77;;
13685;SDS011;6915;48.296;8.874;2024-02-26T16:23:06;2.37;;;1.40;;
13685;SDS011;6915;48.296;8.874;2024-02-26T16:25:34;1.60;;;1.50;;
13685;SDS011;6915;48.296;8.874;2024-02-26T16:28:02;3.43;;;2.23;;
13685;SDS011;6915;48.296;8.874;2024-02-26T16:30:29;2.00;;;1.63;;
13685;SDS011;6915;48.296;8.874;2024-02-26T16:32:57;2.40;;;1.90;;
13685;SDS011;6915;48.296;8.874;2024-02-26T16:35:24;3.77;;;1.73;;
13685;SDS011;6915;48.296;8.874;2024-02-26T16:37:51;2.10;;;1.70;;
13685;SDS011;6915;48.296;8.874;2024-02-26T16:40:18;3.73;;;2.23;;
13685;SDS011;6915;48.296;8.874;2024-02-26T16:42:45;3.57;;;2.33;;
13685;SDS011;6915;48.296;8.874;2024-02-26T16:45:14;4.07;;;1.77;;
13685;SDS011;6915;48.296;8.874;2024-02-26T16:47:41;2.23;;;1.80;;
13685;SDS011;6915;48.296;8.874;2024-02-26T16:50:09;3.73;;;3.20;;
13685;SDS011;6915;48.296;8.874;2024-02-26T16:52:36;3.47;;;3.10;;
13685;SDS011;6915;48.296;8.874;2024-02-26T16:55:03;3.83;;;2.67;;
13685;SDS011;6915;48.296;8.874;2024-02-26T16:57:31;9.20;;;7.60;;
13685;SDS011;6915;48.296;8.874;2024-02-26T16:59:58;7.27;;;3.03;;
13685;SDS011;6915;48.296;8.874;2024-02-26T17:02:26;4.47;;;3.93;;
13685;SDS011;6915;48.296;8.874;2024-02-26T17:04:53;4.73;;;3.70;;
13685;SDS011;6915;48.296;8.874;2024-02-26T17:07:20;4.97;;;3.00;;
13685;SDS011;6915;48.296;8.874;2024-02-26T17:09:47;6.60;;;3.53;;
13685;SDS011;6915;48.296;8.874;2024-02-26T17:15:17;9.60;;;5.80;;
13685;SDS011;6915;48.296;8.874;2024-02-26T17:20:52;5.50;;;3.57;;
13685;SDS011;6915;48.296;8.874;2024-02-26T17:23:20;1.80;;;1.70;;
13685;SDS011;6915;48.296;8.874;2024-02-26T17:26:03;4.27;;;1.63;;
13685;SDS011;6915;48.296;8.874;2024-02-26T17:28:44;1.23;;;1.10;;
13685;SDS011;6915;48.296;8.874;2024-02-26T17:32:20;2.57;;;1.00;;
13685;SDS011;6915;48.296;8.874;2024-02-26T17:42:16;1.50;;;1.33;;
13685;SDS011;6915;48.296;8.874;2024-02-26T17:44:51;1.70;;;1.60;;
13685;SDS011;6915;48.296;8.874;2024-02-26T17:47:34;1.60;;;1.50;;
13685;SDS011;6915;48.296;8.874;2024-02-26T17:50:11;1.80;;;1.40;;
13685;SDS011;6915;48.296;8.874;2024-02-26T17:52:49;1.90;;;1.60;;
13685;SDS011;6915;48.296;8.874;2024-02-26T17:55:18;2.37;;;1.77;;
13685;SDS011;6915;48.296;8.874;2024-02-26T18:00:55;2.63;;;2.33;;
13685;SDS011;6915;48.296;8.874;2024-02-26T18:03:58;3.90;;;2.00;;
13685;SDS011;6915;48.296;8.874;2024-02-26T18:06:40;2.30;;;2.10;;
13685;SDS011;6915;48.296;8.874;2024-02-26T18:09:15;3.53;;;2.17;;
13685;SDS011;6915;48.296;8.874;2024-02-26T18:11:46;4.17;;;2.70;;
13685;SDS011;6915;48.296;8.874;2024-02-26T18:14:38;4.20;;;3.00;;
13685;SDS011;6915;48.296;8.874;2024-02-26T18:24:46;1.93;;;0.83;;
13685;SDS011;6915;48.296;8.874;2024-02-26T18:27:19;1.30;;;1.20;;
13685;SDS011;6915;48.296;8.874;2024-02-26T18:54:21;2.07;;;1.67;;
13685;SDS011;6915;48.296;8.874;2024-02-26T18:57:04;3.10;;;1.63;;
13685;SDS011;6915;48.296;8.874;2024-02-26T18:59:31;2.10;;;1.90;;
13685;SDS011;6915;48.296;8.874;2024-02-26T19:02:00;4.03;;;2.63;;
